sensor_id;sensor_type;location;lat;lon;timestamp;P1;durP1;ratioP1;P2;durP2;ratioP2
30046;SDS011;16878;52.542;13.426;2023-02-16T00:03:48;106.07;;;55.90;;
30046;SDS011;16878;52.542;13.426;2023-02-16T00:06:15;99.35;;;55.70;;
30046;SDS011;16878;52.542;13.426;2023-02-16T00:08:44;99.45;;;52.92;;
30046;SDS011;16878;52.542;13.426;2023-02-16T00:11:12;92.93;;;51.00;;
30046;SDS011;16878;52.542;13.426;2023-02-16T00:14:17;92.68;;;50.67;;
30046;SDS011;16878;52.542;13.426;2023-02-16T00:16:46;86.78;;;48.53;;
30046;SDS011;16878;52.542;13.426;2023-02-16T00:19:17;103.38;;;51.03;;
30046;SDS011;16878;52.542;13.426;2023-02-16T00:21:46;85.38;;;48.47;;
30046;SDS011;16878;52.542;13.426;2023-02-16T00:24:13;85.75;;;49.75;;
30046;SDS011;16878;52.542;13.426;2023-02-16T00:26:40;84.22;;;48.10;;
30046;SDS011;16878;52.542;13.426;2023-02-16T00:29:06;89.35;;;47.47;;
30046;SDS011;16878;52.542;13.426;2023-02-16T00:31:35;82.18;;;45.50;;
30046;SDS011;16878;52.542;13.426;2023-02-16T00:34:05;75.60;;;44.67;;
30046;SDS011;16878;52.542;13.426;2023-02-16T00:37:11;82.30;;;46.85;;
30046;SDS011;16878;52.542;13.426;2023-02-16T00:39:38;79.60;;;45.03;;
30046;SDS011;16878;52.542;13.426;2023-02-16T00:42:27;73.45;;;42.92;;
30046;SDS011;16878;52.542;13.426;2023-02-16T00:44:54;75.33;;;42.27;;
30046;SDS011;16878;52.542;13.426;2023-02-16T00:47:22;76.38;;;43.25;;
30046;SDS011;16878;52.542;13.426;2023-02-16T00:50:03;71.97;;;43.20;;
30046;SDS011;16878;52.542;13.426;2023-02-16T00:52:38;73.57;;;43.55;;
30046;SDS011;16878;52.542;13.426;2023-02-16T00:57:39;77.88;;;43.47;;
30046;SDS011;16878;52.542;13.426;2023-02-16T01:00:33;76.63;;;42.42;;
30046;SDS011;16878;52.542;13.426;2023-02-16T01:03:15;80.68;;;45.58;;
30046;SDS011;16878;52.542;13.426;2023-02-16T01:05:43;73.00;;;40.95;;
30046;SDS011;16878;52.542;13.426;2023-02-16T01:08:14;69.13;;;41.55;;
30046;SDS011;16878;52.542;13.426;2023-02-16T01:11:00;74.68;;;42.08;;
30046;SDS011;16878;52.542;13.426;2023-02-16T01:13:46;71.97;;;42.80;;
30046;SDS011;16878;52.542;13.426;2023-02-16T01:16:18;71.05;;;42.47;;
30046;SDS011;16878;52.542;13.426;2023-02-16T01:18:49;78.13;;;42.22;;
30046;SDS011;16878;52.542;13.426;2023-02-16T01:21:16;72.75;;;42.47;;
30046;SDS011;16878;52.542;13.426;2023-02-16T01:23:42;74.63;;;44.38;;
30046;SDS011;16878;52.542;13.426;2023-02-16T01:26:10;73.03;;;43.47;;
30046;SDS011;16878;52.542;13.426;2023-02-16T01:28:41;69.05;;;41.65;;
30046;SDS011;16878;52.542;13.426;2023-02-16T01:31:08;74.38;;;41.97;;
30046;SDS011;16878;52.542;13.426;2023-02-16T01:33:38;70.35;;;40.88;;
30046;SDS011;16878;52.542;13.426;2023-02-16T01:36:05;69.78;;;41.75;;
30046;SDS011;16878;52.542;13.426;2023-02-16T01:38:42;67.90;;;40.08;;
30046;SDS011;16878;52.542;13.426;2023-02-16T01:43:54;71.47;;;41.33;;
30046;SDS011;16878;52.542;13.426;2023-02-16T01:49:24;66.35;;;40.28;;
30046;SDS011;16878;52.542;13.426;2023-02-16T01:52:02;67.78;;;39.67;;
30046;SDS011;16878;52.542;13.426;2023-02-16T02:03:25;68.43;;;41.30;;
30046;SDS011;16878;52.542;13.426;2023-02-16T02:06:17;74.82;;;42.08;;
30046;SDS011;16878;52.542;13.426;2023-02-16T02:08:58;70.47;;;41.00;;
30046;SDS011;16878;52.542;13.426;2023-02-16T02:11:46;72.65;;;41.35;;
30046;SDS011;16878;52.542;13.426;2023-02-16T02:14:28;70.53;;;40.22;;
30046;SDS011;16878;52.542;13.426;2023-02-16T02:16:58;67.03;;;40.55;;
30046;SDS011;16878;52.542;13.426;2023-02-16T02:19:26;73.03;;;42.17;;
30046;SDS011;16878;52.542;13.426;2023-02-16T02:28:41;73.82;;;43.00;;
30046;SDS011;16878;52.542;13.426;2023-02-16T02:34:16;72.28;;;42.30;;
30046;SDS011;16878;52.542;13.426;2023-02-16T02:39:39;72.57;;;41.92;;
30046;SDS011;16878;52.542;13.426;2023-02-16T02:45:22;73.63;;;43.38;;
30046;SDS011;16878;52.542;13.426;2023-02-16T02:47:50;78.18;;;44.67;;
30046;SDS011;16878;52.542;13.426;2023-02-16T02:53:01;72.03;;;43.20;;
30046;SDS011;16878;52.542;13.426;2023-02-16T02:55:32;72.65;;;41.53;;
30046;SDS011;16878;52.542;13.426;2023-02-16T02:58:18;73.22;;;43.17;;
30046;SDS011;16878;52.542;13.426;2023-02-16T03:01:05;70.50;;;40.70;;
30046;SDS011;16878;52.542;13.426;2023-02-16T03:03:34;69.53;;;43.10;;
30046;SDS011;16878;52.542;13.426;2023-02-16T03:06:14;71.43;;;42.78;;
30046;SDS011;16878;52.542;13.426;2023-02-16T03:08:45;73.68;;;43.78;;
30046;SDS011;16878;52.542;13.426;2023-02-16T03:11:23;70.15;;;42.15;;
30046;SDS011;16878;52.542;13.426;2023-02-16T03:14:17;69.32;;;41.33;;
30046;SDS011;16878;52.542;13.426;2023-02-16T03:16:48;78.25;;;43.22;;
30046;SDS011;16878;52.542;13.426;2023-02-16T03:19:38;74.95;;;44.10;;
30046;SDS011;16878;52.542;13.426;2023-02-16T03:22:25;79.78;;;42.13;;
30046;SDS011;16878;52.542;13.426;2023-02-16T03:25:10;68.63;;;40.58;;
30046;SDS011;16878;52.542;13.426;2023-02-16T03:27:54;69.28;;;41.33;;
30046;SDS011;16878;52.542;13.426;2023-02-16T03:30:40;68.90;;;39.17;;
30046;SDS011;16878;52.542;13.426;2023-02-16T03:33:08;59.08;;;37.15;;
30046;SDS011;16878;52.542;13.426;2023-02-16T03:35:35;63.40;;;37.95;;
30046;SDS011;16878;52.542;13.426;2023-02-16T03:38:02;59.88;;;37.08;;
30046;SDS011;16878;52.542;13.426;2023-02-16T03:40:28;62.70;;;37.75;;
30046;SDS011;16878;52.542;13.426;2023-02-16T03:43:00;59.60;;;36.87;;
30046;SDS011;16878;52.542;13.426;2023-02-16T03:45:28;58.13;;;36.78;;
30046;SDS011;16878;52.542;13.426;2023-02-16T03:47:54;55.63;;;35.92;;
30046;SDS011;16878;52.542;13.426;2023-02-16T03:50:20;56.22;;;36.20;;
30046;SDS011;16878;52.542;13.426;2023-02-16T03:52:46;61.08;;;36.92;;
30046;SDS011;16878;52.542;13.426;2023-02-16T03:55:12;59.78;;;35.30;;
30046;SDS011;16878;52.542;13.426;2023-02-16T03:57:38;57.38;;;36.20;;
30046;SDS011;16878;52.542;13.426;2023-02-16T04:00:04;54.28;;;35.00;;
30046;SDS011;16878;52.542;13.426;2023-02-16T04:02:30;61.05;;;36.17;;
30046;SDS011;16878;52.542;13.426;2023-02-16T04:04:56;70.63;;;36.72;;
30046;SDS011;16878;52.542;13.426;2023-02-16T04:07:23;60.50;;;35.35;;
30046;SDS011;16878;52.542;13.426;2023-02-16T04:09:49;59.00;;;35.08;;
30046;SDS011;16878;52.542;13.426;2023-02-16T04:12:14;58.15;;;36.33;;
30046;SDS011;16878;52.542;13.426;2023-02-16T04:14:59;54.67;;;36.47;;
30046;SDS011;16878;52.542;13.426;2023-02-16T04:17:24;55.67;;;35.53;;
30046;SDS011;16878;52.542;13.426;2023-02-16T04:19:50;55.15;;;34.95;;
30046;SDS011;16878;52.542;13.426;2023-02-16T04:22:16;56.85;;;35.13;;
30046;SDS011;16878;52.542;13.426;2023-02-16T04:24:41;53.25;;;34.60;;
30046;SDS011;16878;52.542;13.426;2023-02-16T04:27:11;56.30;;;34.85;;
30046;SDS011;16878;52.542;13.426;2023-02-16T04:29:36;54.83;;;33.88;;
30046;SDS011;16878;52.542;13.426;2023-02-16T04:32:02;55.72;;;31.88;;
30046;SDS011;16878;52.542;13.426;2023-02-16T04:34:28;53.22;;;32.55;;
30046;SDS011;16878;52.542;13.426;2023-02-16T04:36:53;53.72;;;31.73;;
30046;SDS011;16878;52.542;13.426;2023-02-16T04:39:19;53.90;;;31.02;;
30046;SDS011;16878;52.542;13.426;2023-02-16T04:41:45;52.50;;;31.23;;
30046;SDS011;16878;52.542;13.426;2023-02-16T04:44:11;54.70;;;32.67;;
30046;SDS011;16878;52.542;13.426;2023-02-16T04:46:37;54.03;;;32.65;;
30046;SDS011;16878;52.542;13.426;2023-02-16T04:49:03;53.63;;;31.80;;
30046;SDS011;16878;52.542;13.426;2023-02-16T04:51:28;56.72;;;33.03;;
30046;SDS011;16878;52.542;13.426;2023-02-16T04:53:54;50.05;;;31.23;;
30046;SDS011;16878;52.542;13.426;2023-02-16T04:56:20;50.10;;;32.13;;
30046;SDS011;16878;52.542;13.426;2023-02-16T04:58:45;48.10;;;30.85;;
30046;SDS011;16878;52.542;13.426;2023-02-16T05:01:21;50.10;;;31.20;;
30046;SDS011;16878;52.542;13.426;2023-02-16T05:03:52;56.72;;;32.28;;
30046;SDS011;16878;52.542;13.426;2023-02-16T05:06:18;51.25;;;30.77;;
30046;SDS011;16878;52.542;13.426;2023-02-16T05:08:44;57.08;;;32.15;;
30046;SDS011;16878;52.542;13.426;2023-02-16T05:11:11;57.22;;;32.03;;
30046;SDS011;16878;52.542;13.426;2023-02-16T05:13:56;51.47;;;32.00;;
30046;SDS011;16878;52.542;13.426;2023-02-16T05:16:41;51.35;;;32.53;;
30046;SDS011;16878;52.542;13.426;2023-02-16T05:19:07;55.78;;;32.58;;
30046;SDS011;16878;52.542;13.426;2023-02-16T05:21:33;52.47;;;31.95;;
30046;SDS011;16878;52.542;13.426;2023-02-16T05:26:30;51.08;;;32.13;;
30046;SDS011;16878;52.542;13.426;2023-02-16T05:28:56;52.67;;;32.45;;
30046;SDS011;16878;52.542;13.426;2023-02-16T05:31:22;56.03;;;32.33;;
30046;SDS011;16878;52.542;13.426;2023-02-16T05:33:48;56.42;;;33.17;;
30046;SDS011;16878;52.542;13.426;2023-02-16T05:36:14;56.38;;;34.22;;
30046;SDS011;16878;52.542;13.426;2023-02-16T05:38:40;55.80;;;32.83;;
30046;SDS011;16878;52.542;13.426;2023-02-16T05:41:06;54.90;;;30.40;;
30046;SDS011;16878;52.542;13.426;2023-02-16T05:43:31;49.83;;;30.88;;
30046;SDS011;16878;52.542;13.426;2023-02-16T05:45:57;50.78;;;31.15;;
30046;SDS011;16878;52.542;13.426;2023-02-16T05:48:23;52.42;;;30.83;;
30046;SDS011;16878;52.542;13.426;2023-02-16T05:50:49;53.03;;;31.55;;
30046;SDS011;16878;52.542;13.426;2023-02-16T05:53:18;51.10;;;31.33;;
30046;SDS011;16878;52.542;13.426;2023-02-16T05:55:44;50.88;;;31.17;;
30046;SDS011;16878;52.542;13.426;2023-02-16T05:58:10;55.25;;;32.28;;
30046;SDS011;16878;52.542;13.426;2023-02-16T06:00:35;54.97;;;31.95;;
30046;SDS011;16878;52.542;13.426;2023-02-16T06:03:02;53.38;;;31.30;;
30046;SDS011;16878;52.542;13.426;2023-02-16T06:05:28;53.80;;;32.40;;
30046;SDS011;16878;52.542;13.426;2023-02-16T06:07:54;54.83;;;32.15;;
30046;SDS011;16878;52.542;13.426;2023-02-16T06:10:20;48.63;;;31.63;;
30046;SDS011;16878;52.542;13.426;2023-02-16T06:12:45;52.50;;;31.77;;
30046;SDS011;16878;52.542;13.426;2023-02-16T06:15:11;53.03;;;33.33;;
30046;SDS011;16878;52.542;13.426;2023-02-16T06:17:37;49.90;;;31.25;;
30046;SDS011;16878;52.542;13.426;2023-02-16T06:20:03;59.15;;;33.28;;
30046;SDS011;16878;52.542;13.426;2023-02-16T06:22:29;50.15;;;31.13;;
30046;SDS011;16878;52.542;13.426;2023-02-16T06:24:55;54.28;;;31.95;;
30046;SDS011;16878;52.542;13.426;2023-02-16T06:27:21;57.83;;;31.40;;
30046;SDS011;16878;52.542;13.426;2023-02-16T06:29:47;54.67;;;34.38;;
30046;SDS011;16878;52.542;13.426;2023-02-16T06:32:12;54.42;;;32.63;;
30046;SDS011;16878;52.542;13.426;2023-02-16T06:34:38;53.03;;;32.40;;
30046;SDS011;16878;52.542;13.426;2023-02-16T06:37:04;60.78;;;32.85;;
30046;SDS011;16878;52.542;13.426;2023-02-16T06:39:30;55.03;;;32.38;;
30046;SDS011;16878;52.542;13.426;2023-02-16T06:41:56;62.13;;;32.05;;
30046;SDS011;16878;52.542;13.426;2023-02-16T06:44:21;50.88;;;31.55;;
30046;SDS011;16878;52.542;13.426;2023-02-16T06:46:47;56.72;;;31.58;;
30046;SDS011;16878;52.542;13.426;2023-02-16T06:49:14;52.72;;;30.55;;
30046;SDS011;16878;52.542;13.426;2023-02-16T06:51:45;55.63;;;31.42;;
30046;SDS011;16878;52.542;13.426;2023-02-16T06:54:11;62.60;;;31.80;;
30046;SDS011;16878;52.542;13.426;2023-02-16T06:56:38;58.17;;;32.90;;
30046;SDS011;16878;52.542;13.426;2023-02-16T06:59:04;59.35;;;31.52;;
30046;SDS011;16878;52.542;13.426;2023-02-16T07:01:30;57.88;;;32.13;;
30046;SDS011;16878;52.542;13.426;2023-02-16T07:03:56;54.67;;;30.50;;
30046;SDS011;16878;52.542;13.426;2023-02-16T07:06:23;48.35;;;29.27;;
30046;SDS011;16878;52.542;13.426;2023-02-16T07:08:51;58.28;;;31.42;;
30046;SDS011;16878;52.542;13.426;2023-02-16T07:11:18;51.85;;;31.10;;
30046;SDS011;16878;52.542;13.426;2023-02-16T07:13:44;54.92;;;30.88;;
30046;SDS011;16878;52.542;13.426;2023-02-16T07:16:11;48.83;;;30.58;;
30046;SDS011;16878;52.542;13.426;2023-02-16T07:18:38;50.72;;;29.92;;
30046;SDS011;16878;52.542;13.426;2023-02-16T07:21:04;50.33;;;29.55;;
30046;SDS011;16878;52.542;13.426;2023-02-16T07:23:31;57.60;;;30.77;;
30046;SDS011;16878;52.542;13.426;2023-02-16T07:25:57;51.40;;;29.55;;
30046;SDS011;16878;52.542;13.426;2023-02-16T07:28:23;50.95;;;29.05;;
30046;SDS011;16878;52.542;13.426;2023-02-16T07:30:49;60.85;;;30.52;;
30046;SDS011;16878;52.542;13.426;2023-02-16T07:33:15;52.08;;;30.27;;
30046;SDS011;16878;52.542;13.426;2023-02-16T07:35:42;58.35;;;30.23;;
30046;SDS011;16878;52.542;13.426;2023-02-16T07:38:08;58.05;;;29.13;;
30046;SDS011;16878;52.542;13.426;2023-02-16T07:40:34;55.63;;;31.63;;
30046;SDS011;16878;52.542;13.426;2023-02-16T07:43:01;53.38;;;30.65;;
30046;SDS011;16878;52.542;13.426;2023-02-16T07:45:28;51.55;;;29.98;;
30046;SDS011;16878;52.542;13.426;2023-02-16T07:47:56;57.78;;;31.48;;
30046;SDS011;16878;52.542;13.426;2023-02-16T07:50:22;49.92;;;31.10;;
30046;SDS011;16878;52.542;13.426;2023-02-16T07:52:49;60.40;;;33.80;;
30046;SDS011;16878;52.542;13.426;2023-02-16T07:55:15;62.80;;;31.90;;
30046;SDS011;16878;52.542;13.426;2023-02-16T07:57:40;52.50;;;30.02;;
30046;SDS011;16878;52.542;13.426;2023-02-16T08:00:07;58.38;;;32.38;;
30046;SDS011;16878;52.542;13.426;2023-02-16T08:02:34;53.03;;;31.13;;
30046;SDS011;16878;52.542;13.426;2023-02-16T08:04:59;62.53;;;33.22;;
30046;SDS011;16878;52.542;13.426;2023-02-16T08:07:25;60.75;;;31.90;;
30046;SDS011;16878;52.542;13.426;2023-02-16T08:09:51;48.85;;;30.27;;
30046;SDS011;16878;52.542;13.426;2023-02-16T08:12:17;52.95;;;30.30;;
30046;SDS011;16878;52.542;13.426;2023-02-16T08:14:44;58.83;;;31.27;;
30046;SDS011;16878;52.542;13.426;2023-02-16T08:17:14;49.95;;;30.45;;
30046;SDS011;16878;52.542;13.426;2023-02-16T08:19:40;52.53;;;31.73;;
30046;SDS011;16878;52.542;13.426;2023-02-16T08:22:06;52.55;;;32.03;;
30046;SDS011;16878;52.542;13.426;2023-02-16T08:24:33;50.95;;;31.27;;
30046;SDS011;16878;52.542;13.426;2023-02-16T08:26:59;54.78;;;32.67;;
30046;SDS011;16878;52.542;13.426;2023-02-16T08:29:27;63.97;;;33.37;;
30046;SDS011;16878;52.542;13.426;2023-02-16T08:31:53;57.28;;;33.95;;
30046;SDS011;16878;52.542;13.426;2023-02-16T08:34:20;56.75;;;35.42;;
30046;SDS011;16878;52.542;13.426;2023-02-16T08:36:50;56.80;;;34.33;;
30046;SDS011;16878;52.542;13.426;2023-02-16T08:39:19;58.00;;;34.97;;
30046;SDS011;16878;52.542;13.426;2023-02-16T08:41:46;56.25;;;35.90;;
30046;SDS011;16878;52.542;13.426;2023-02-16T08:44:13;67.53;;;39.05;;
30046;SDS011;16878;52.542;13.426;2023-02-16T08:46:40;61.65;;;38.72;;
30046;SDS011;16878;52.542;13.426;2023-02-16T08:49:07;63.83;;;38.30;;
30046;SDS011;16878;52.542;13.426;2023-02-16T08:51:35;57.47;;;36.10;;
30046;SDS011;16878;52.542;13.426;2023-02-16T08:54:05;63.80;;;35.53;;
30046;SDS011;16878;52.542;13.426;2023-02-16T08:56:35;60.10;;;35.05;;
30046;SDS011;16878;52.542;13.426;2023-02-16T08:59:00;64.10;;;35.13;;
30046;SDS011;16878;52.542;13.426;2023-02-16T09:01:26;54.97;;;33.80;;
30046;SDS011;16878;52.542;13.426;2023-02-16T09:03:52;62.33;;;36.67;;
30046;SDS011;16878;52.542;13.426;2023-02-16T09:06:19;62.80;;;36.33;;
30046;SDS011;16878;52.542;13.426;2023-02-16T09:08:50;66.82;;;37.78;;
30046;SDS011;16878;52.542;13.426;2023-02-16T09:11:17;69.80;;;38.35;;
30046;SDS011;16878;52.542;13.426;2023-02-16T09:13:43;89.85;;;47.15;;
30046;SDS011;16878;52.542;13.426;2023-02-16T09:16:13;79.78;;;44.13;;
30046;SDS011;16878;52.542;13.426;2023-02-16T09:18:43;71.97;;;43.72;;
30046;SDS011;16878;52.542;13.426;2023-02-16T09:21:11;72.20;;;46.25;;
30046;SDS011;16878;52.542;13.426;2023-02-16T09:23:44;81.30;;;46.95;;
30046;SDS011;16878;52.542;13.426;2023-02-16T09:26:12;92.03;;;54.72;;
30046;SDS011;16878;52.542;13.426;2023-02-16T09:28:40;143.68;;;77.47;;
30046;SDS011;16878;52.542;13.426;2023-02-16T09:31:08;117.80;;;64.97;;
30046;SDS011;16878;52.542;13.426;2023-02-16T09:33:34;94.13;;;53.25;;
30046;SDS011;16878;52.542;13.426;2023-02-16T09:36:03;90.38;;;54.78;;
30046;SDS011;16878;52.542;13.426;2023-02-16T09:40:55;68.38;;;42.78;;
30046;SDS011;16878;52.542;13.426;2023-02-16T09:46:27;66.25;;;36.40;;
30046;SDS011;16878;52.542;13.426;2023-02-16T09:48:55;63.22;;;35.15;;
30046;SDS011;16878;52.542;13.426;2023-02-16T09:51:31;58.67;;;34.92;;
30046;SDS011;16878;52.542;13.426;2023-02-16T09:59:49;63.70;;;34.47;;
30046;SDS011;16878;52.542;13.426;2023-02-16T10:04:55;55.45;;;33.50;;
30046;SDS011;16878;52.542;13.426;2023-02-16T10:07:33;62.05;;;34.33;;
30046;SDS011;16878;52.542;13.426;2023-02-16T10:10:12;58.67;;;35.67;;
30046;SDS011;16878;52.542;13.426;2023-02-16T10:12:41;59.58;;;33.90;;
30046;SDS011;16878;52.542;13.426;2023-02-16T10:15:15;62.35;;;35.70;;
30046;SDS011;16878;52.542;13.426;2023-02-16T10:17:47;55.75;;;35.15;;
30046;SDS011;16878;52.542;13.426;2023-02-16T10:20:18;66.90;;;36.65;;
30046;SDS011;16878;52.542;13.426;2023-02-16T10:25:47;66.93;;;37.35;;
30046;SDS011;16878;52.542;13.426;2023-02-16T10:28:44;71.57;;;37.40;;
30046;SDS011;16878;52.542;13.426;2023-02-16T10:39:20;62.15;;;38.00;;
30046;SDS011;16878;52.542;13.426;2023-02-16T10:42:02;67.78;;;37.65;;
30046;SDS011;16878;52.542;13.426;2023-02-16T10:44:34;62.03;;;37.08;;
30046;SDS011;16878;52.542;13.426;2023-02-16T10:47:05;60.38;;;37.33;;
30046;SDS011;16878;52.542;13.426;2023-02-16T10:49:39;67.22;;;38.38;;
30046;SDS011;16878;52.542;13.426;2023-02-16T10:52:05;63.78;;;37.72;;
30046;SDS011;16878;52.542;13.426;2023-02-16T10:54:32;63.05;;;36.85;;
30046;SDS011;16878;52.542;13.426;2023-02-16T10:57:07;61.55;;;37.58;;
30046;SDS011;16878;52.542;13.426;2023-02-16T10:59:50;65.45;;;37.75;;
30046;SDS011;16878;52.542;13.426;2023-02-16T11:02:29;68.97;;;38.00;;
30046;SDS011;16878;52.542;13.426;2023-02-16T11:05:02;61.20;;;35.97;;
30046;SDS011;16878;52.542;13.426;2023-02-16T11:07:53;55.63;;;35.65;;
30046;SDS011;16878;52.542;13.426;2023-02-16T11:10:36;58.65;;;35.75;;
30046;SDS011;16878;52.542;13.426;2023-02-16T11:13:02;66.93;;;37.38;;
30046;SDS011;16878;52.542;13.426;2023-02-16T11:15:28;66.82;;;36.08;;
30046;SDS011;16878;52.542;13.426;2023-02-16T11:25:54;59.85;;;36.22;;
30046;SDS011;16878;52.542;13.426;2023-02-16T11:28:40;55.28;;;34.38;;
30046;SDS011;16878;52.542;13.426;2023-02-16T11:33:58;56.60;;;33.70;;
30046;SDS011;16878;52.542;13.426;2023-02-16T11:39:05;58.28;;;33.58;;
30046;SDS011;16878;52.542;13.426;2023-02-16T11:41:43;60.05;;;33.58;;
30046;SDS011;16878;52.542;13.426;2023-02-16T11:44:28;60.17;;;34.50;;
30046;SDS011;16878;52.542;13.426;2023-02-16T11:47:02;63.03;;;35.58;;
30046;SDS011;16878;52.542;13.426;2023-02-16T11:49:36;59.88;;;34.42;;
30046;SDS011;16878;52.542;13.426;2023-02-16T11:54:52;59.83;;;34.35;;
30046;SDS011;16878;52.542;13.426;2023-02-16T11:57:30;55.97;;;34.08;;
30046;SDS011;16878;52.542;13.426;2023-02-16T11:59:58;61.85;;;34.80;;
30046;SDS011;16878;52.542;13.426;2023-02-16T12:05:17;59.42;;;34.38;;
30046;SDS011;16878;52.542;13.426;2023-02-16T12:16:23;57.08;;;34.63;;
30046;SDS011;16878;52.542;13.426;2023-02-16T12:19:18;59.33;;;33.58;;
30046;SDS011;16878;52.542;13.426;2023-02-16T12:33:01;55.30;;;33.20;;
30046;SDS011;16878;52.542;13.426;2023-02-16T12:38:42;53.78;;;31.90;;
30046;SDS011;16878;52.542;13.426;2023-02-16T12:44:35;54.67;;;32.20;;
30046;SDS011;16878;52.542;13.426;2023-02-16T12:47:08;51.78;;;32.53;;
30046;SDS011;16878;52.542;13.426;2023-02-16T12:49:47;60.08;;;31.90;;
30046;SDS011;16878;52.542;13.426;2023-02-16T12:52:28;53.85;;;32.80;;
30046;SDS011;16878;52.542;13.426;2023-02-16T12:57:49;52.90;;;31.85;;
30046;SDS011;16878;52.542;13.426;2023-02-16T13:00:21;52.95;;;31.23;;
30046;SDS011;16878;52.542;13.426;2023-02-16T13:02:51;54.45;;;31.25;;
30046;SDS011;16878;52.542;13.426;2023-02-16T13:05:24;54.80;;;32.88;;
30046;SDS011;16878;52.542;13.426;2023-02-16T13:08:11;55.20;;;31.10;;
30046;SDS011;16878;52.542;13.426;2023-02-16T13:10:55;59.90;;;32.35;;
30046;SDS011;16878;52.542;13.426;2023-02-16T13:13:26;53.60;;;29.50;;
30046;SDS011;16878;52.542;13.426;2023-02-16T13:18:31;53.30;;;29.85;;
30046;SDS011;16878;52.542;13.426;2023-02-16T13:21:03;56.08;;;31.17;;
30046;SDS011;16878;52.542;13.426;2023-02-16T13:23:50;53.95;;;29.65;;
30046;SDS011;16878;52.542;13.426;2023-02-16T13:29:04;55.20;;;30.75;;
30046;SDS011;16878;52.542;13.426;2023-02-16T13:34:44;51.30;;;29.00;;
30046;SDS011;16878;52.542;13.426;2023-02-16T13:46:41;49.05;;;28.52;;
30046;SDS011;16878;52.542;13.426;2023-02-16T13:49:04;46.40;;;27.90;;
30046;SDS011;16878;52.542;13.426;2023-02-16T13:51:44;55.72;;;28.00;;
30046;SDS011;16878;52.542;13.426;2023-02-16T13:57:14;52.85;;;30.63;;
30046;SDS011;16878;52.542;13.426;2023-02-16T14:00:23;48.13;;;27.33;;
30046;SDS011;16878;52.542;13.426;2023-02-16T14:02:58;48.53;;;28.05;;
30046;SDS011;16878;52.542;13.426;2023-02-16T14:05:31;52.90;;;29.48;;
30046;SDS011;16878;52.542;13.426;2023-02-16T14:10:58;47.80;;;26.95;;
30046;SDS011;16878;52.542;13.426;2023-02-16T14:21:16;51.42;;;26.88;;
30046;SDS011;16878;52.542;13.426;2023-02-16T14:23:56;47.67;;;26.92;;
30046;SDS011;16878;52.542;13.426;2023-02-16T14:26:23;46.83;;;26.65;;
30046;SDS011;16878;52.542;13.426;2023-02-16T14:31:38;43.45;;;26.80;;
30046;SDS011;16878;52.542;13.426;2023-02-16T14:34:14;47.30;;;27.00;;
30046;SDS011;16878;52.542;13.426;2023-02-16T14:37:21;44.95;;;28.08;;
30046;SDS011;16878;52.542;13.426;2023-02-16T14:39:51;47.80;;;27.55;;
30046;SDS011;16878;52.542;13.426;2023-02-16T14:42:21;47.08;;;26.45;;
30046;SDS011;16878;52.542;13.426;2023-02-16T14:45:07;44.65;;;25.77;;
30046;SDS011;16878;52.542;13.426;2023-02-16T14:50:50;44.45;;;25.35;;
30046;SDS011;16878;52.542;13.426;2023-02-16T14:56:25;45.83;;;26.38;;
30046;SDS011;16878;52.542;13.426;2023-02-16T14:59:29;47.75;;;27.10;;
30046;SDS011;16878;52.542;13.426;2023-02-16T15:01:58;50.75;;;29.17;;
30046;SDS011;16878;52.542;13.426;2023-02-16T15:04:25;47.42;;;28.92;;
30046;SDS011;16878;52.542;13.426;2023-02-16T15:06:52;50.35;;;26.00;;
30046;SDS011;16878;52.542;13.426;2023-02-16T15:09:26;50.22;;;25.83;;
30046;SDS011;16878;52.542;13.426;2023-02-16T15:11:56;47.35;;;25.73;;
30046;SDS011;16878;52.542;13.426;2023-02-16T15:14:56;54.72;;;28.35;;
30046;SDS011;16878;52.542;13.426;2023-02-16T15:17:28;46.78;;;25.77;;
30046;SDS011;16878;52.542;13.426;2023-02-16T15:20:02;52.38;;;25.77;;
30046;SDS011;16878;52.542;13.426;2023-02-16T15:22:55;47.00;;;24.35;;
30046;SDS011;16878;52.542;13.426;2023-02-16T15:28:00;48.22;;;24.88;;
30046;SDS011;16878;52.542;13.426;2023-02-16T15:30:37;45.22;;;23.77;;
30046;SDS011;16878;52.542;13.426;2023-02-16T15:33:06;48.28;;;26.02;;
30046;SDS011;16878;52.542;13.426;2023-02-16T15:35:57;46.40;;;24.35;;
30046;SDS011;16878;52.542;13.426;2023-02-16T15:38:59;43.00;;;24.02;;
30046;SDS011;16878;52.542;13.426;2023-02-16T15:41:29;50.35;;;27.02;;
30046;SDS011;16878;52.542;13.426;2023-02-16T15:43:57;42.80;;;24.38;;
30046;SDS011;16878;52.542;13.426;2023-02-16T15:46:31;43.22;;;23.63;;
30046;SDS011;16878;52.542;13.426;2023-02-16T15:49:12;43.00;;;23.45;;
30046;SDS011;16878;52.542;13.426;2023-02-16T15:51:47;45.75;;;26.55;;
30046;SDS011;16878;52.542;13.426;2023-02-16T15:54:21;43.50;;;24.38;;
30046;SDS011;16878;52.542;13.426;2023-02-16T15:56:49;51.50;;;26.27;;
30046;SDS011;16878;52.542;13.426;2023-02-16T15:59:20;48.75;;;26.55;;
30046;SDS011;16878;52.542;13.426;2023-02-16T16:04:28;54.15;;;26.75;;
30046;SDS011;16878;52.542;13.426;2023-02-16T16:06:55;48.25;;;26.25;;
30046;SDS011;16878;52.542;13.426;2023-02-16T16:09:25;46.25;;;24.42;;
30046;SDS011;16878;52.542;13.426;2023-02-16T16:11:54;51.58;;;27.00;;
30046;SDS011;16878;52.542;13.426;2023-02-16T16:14:23;49.45;;;27.15;;
30046;SDS011;16878;52.542;13.426;2023-02-16T16:16:49;48.13;;;27.35;;
30046;SDS011;16878;52.542;13.426;2023-02-16T16:19:17;62.95;;;27.45;;
30046;SDS011;16878;52.542;13.426;2023-02-16T16:21:52;49.63;;;28.27;;
30046;SDS011;16878;52.542;13.426;2023-02-16T16:24:52;63.53;;;30.27;;
30046;SDS011;16878;52.542;13.426;2023-02-16T16:27:12;56.65;;;30.23;;
30046;SDS011;16878;52.542;13.426;2023-02-16T16:32:21;49.67;;;27.20;;
30046;SDS011;16878;52.542;13.426;2023-02-16T16:34:50;53.65;;;28.50;;
30046;SDS011;16878;52.542;13.426;2023-02-16T16:37:37;47.20;;;26.17;;
30046;SDS011;16878;52.542;13.426;2023-02-16T16:42:30;50.40;;;28.55;;
30046;SDS011;16878;52.542;13.426;2023-02-16T16:47:32;54.20;;;27.42;;
30046;SDS011;16878;52.542;13.426;2023-02-16T16:57:59;51.72;;;27.38;;
30046;SDS011;16878;52.542;13.426;2023-02-16T17:00:30;53.72;;;28.50;;
30046;SDS011;16878;52.542;13.426;2023-02-16T17:05:25;55.80;;;27.98;;
30046;SDS011;16878;52.542;13.426;2023-02-16T17:07:51;50.50;;;28.88;;
30046;SDS011;16878;52.542;13.426;2023-02-16T17:10:17;53.15;;;27.20;;
30046;SDS011;16878;52.542;13.426;2023-02-16T17:12:46;51.00;;;26.77;;
30046;SDS011;16878;52.542;13.426;2023-02-16T17:15:26;52.47;;;28.30;;
30046;SDS011;16878;52.542;13.426;2023-02-16T17:18:04;57.47;;;30.45;;
30046;SDS011;16878;52.542;13.426;2023-02-16T17:20:31;54.22;;;27.50;;
30046;SDS011;16878;52.542;13.426;2023-02-16T17:22:57;53.65;;;27.90;;
30046;SDS011;16878;52.542;13.426;2023-02-16T17:25:29;56.13;;;27.88;;
30046;SDS011;16878;52.542;13.426;2023-02-16T17:27:56;53.25;;;27.30;;
30046;SDS011;16878;52.542;13.426;2023-02-16T17:30:22;58.15;;;31.30;;